Time;durP1;ratioP1;P1;durP2;ratioP2;P2;SDS_P1;SDS_P2;PMS_P1;PMS_P2;Temp;Humidity;BMP_temperature;BMP_pressure;BME280_temperature;BME280_humidity;BME280_pressure;Samples;Min_cycle;Max_cycle;Signal;HPM_P1;HPM_P2
2022/04/15 00:02:09;;;;;;;0.13;0.13;;;;;;;23.20;19.06;101047.31;5039434;28;20029;-79
2022/04/15 00:04:35;;;;;;;0.10;0.10;;;;;;;23.20;19.14;101050.03;5038305;28;20036;-79
2022/04/15 00:07:01;;;;;;;0.20;0.20;;;;;;;23.19;19.23;101041.00;5055098;28;20080;-79
2022/04/15 00:09:27;;;;;;;0.20;0.20;;;;;;;23.20;19.31;101047.31;5039429;28;20503;-79
2022/04/15 00:11:53;;;;;;;0.20;0.20;;;;;;;23.21;19.18;101043.47;5039846;28;20491;-79
2022/04/15 00:14:19;;;;;;;0.10;0.10;;;;;;;23.19;19.20;101051.09;5039493;28;20040;-79
2022/04/15 00:16:44;;;;;;;0.20;0.20;;;;;;;23.19;19.20;101048.38;5039286;28;20468;-79
2022/04/15 00:19:13;;;;;;;0.20;0.20;;;;;;;23.17;19.16;101042.34;5039157;28;20032;-79
2022/04/15 00:21:39;;;;;;;0.20;0.20;;;;;;;23.18;19.10;101044.84;5054627;28;20088;-79
2022/04/15 00:24:05;;;;;;;0.20;0.20;;;;;;;23.20;19.13;101050.03;5039294;28;20029;-79
2022/04/15 00:26:30;;;;;;;0.20;0.20;;;;;;;23.19;19.29;101046.47;5039085;28;20071;-79
2022/04/15 00:28:56;;;;;;;0.20;0.20;;;;;;;23.18;19.06;101050.28;5040873;28;20018;-79
2022/04/15 00:31:21;;;;;;;0.20;0.20;;;;;;;23.18;19.23;101054.91;5055537;28;20025;-79
2022/04/15 00:33:47;;;;;;;0.20;0.20;;;;;;;23.18;19.18;101052.16;5038246;28;20484;-79
2022/04/15 00:36:12;;;;;;;0.20;0.20;;;;;;;23.18;19.01;101066.66;5053580;28;20026;-79
2022/04/15 00:38:38;;;;;;;0.25;0.25;;;;;;;23.16;18.99;101063.34;5019237;28;20029;-79
2022/04/15 00:41:03;;;;;;;0.20;0.20;;;;;;;23.17;18.94;101059.53;5017027;28;20393;-79
2022/04/15 00:43:29;;;;;;;0.30;0.20;;;;;;;23.16;18.94;101068.81;5018754;28;20150;-79
2022/04/15 00:46:03;;;;;;;0.20;0.20;;;;;;;23.15;19.12;101066.34;5016500;28;20472;-79
2022/04/15 00:48:29;;;;;;;0.20;0.20;;;;;;;23.16;18.78;101070.69;4999987;28;20107;-79
2022/04/15 00:50:54;;;;;;;0.20;0.20;;;;;;;23.16;18.79;101073.41;5015649;28;20452;-79
2022/04/15 00:53:22;;;;;;;0.20;0.20;;;;;;;23.17;18.78;101066.91;5016404;28;20461;-79
2022/04/15 00:55:48;;;;;;;0.28;0.28;;;;;;;23.15;18.73;101066.34;4999325;28;20026;-79
2022/04/15 00:58:13;;;;;;;0.20;0.20;;;;;;;23.13;18.94;101063.00;4999292;28;20024;-79
2022/04/15 01:00:39;;;;;;;0.10;0.10;;;;;;;23.16;18.71;101073.41;5015330;28;20218;-79
2022/04/15 01:03:05;;;;;;;0.20;0.20;;;;;;;23.15;18.64;101067.16;5016763;28;20428;-79
2022/04/15 01:05:30;;;;;;;0.20;0.20;;;;;;;23.15;18.70;101078.06;5016682;28;20109;-79
2022/04/15 01:07:56;;;;;;;0.30;0.30;;;;;;;23.14;18.54;101081.84;5016484;28;20029;-79
2022/04/15 01:10:22;;;;;;;0.20;0.20;;;;;;;23.13;18.55;101073.91;5015965;28;20385;-79
2022/04/15 01:12:53;;;;;;;0.20;0.20;;;;;;;23.14;18.41;101072.84;5014887;28;20491;-79
2022/04/15 01:15:18;;;;;;;0.20;0.20;;;;;;;23.13;18.52;101074.75;5016603;28;20034;-79
2022/04/15 01:17:44;;;;;;;0.20;0.20;;;;;;;23.14;18.65;101075.59;5016457;28;20385;-79
2022/04/15 01:20:10;;;;;;;0.30;0.30;;;;;;;23.13;18.51;101080.22;5016211;28;20461;-79
2022/04/15 01:22:41;;;;;;;0.20;0.20;;;;;;;23.15;18.50;101078.06;5015042;28;20037;-79
2022/04/15 01:25:07;;;;;;;0.20;0.20;;;;;;;23.15;18.33;101085.41;5016162;28;20025;-79
2022/04/15 01:27:37;;;;;;;0.20;0.20;;;;;;;23.12;18.42;101083.19;5016628;28;20072;-79
2022/04/15 01:30:04;;;;;;;0.20;0.20;;;;;;;23.14;18.41;101091.94;5015031;28;20156;-79
2022/04/15 01:32:29;;;;;;;0.20;0.20;;;;;;;23.12;18.25;101088.66;5016207;28;20126;-79
2022/04/15 01:34:55;;;;;;;0.30;0.30;;;;;;;23.13;18.11;101090.28;5014487;28;20040;-79
2022/04/15 01:37:20;;;;;;;0.20;0.20;;;;;;;23.12;18.31;101094.09;5024916;28;20021;-79
2022/04/15 01:39:46;;;;;;;0.20;0.20;;;;;;;23.09;18.14;101089.16;5034028;28;20440;-79
2022/04/15 01:42:12;;;;;;;0.20;0.20;;;;;;;23.11;18.18;101087.00;5051184;28;20030;-79
2022/04/15 01:44:39;;;;;;;0.20;0.20;;;;;;;23.11;18.15;101082.38;5051207;28;20029;-79
2022/04/15 01:47:05;;;;;;;0.30;0.30;;;;;;;23.12;18.04;101080.47;5050581;28;20032;-79
2022/04/15 01:49:30;;;;;;;0.25;0.25;;;;;;;23.13;18.13;101087.56;5034534;28;20022;-79
2022/04/15 01:51:55;;;;;;;0.20;0.20;;;;;;;23.13;18.04;101084.81;5035203;28;20028;-79
2022/04/15 01:54:21;;;;;;;0.30;0.30;;;;;;;23.09;18.08;101089.16;5050353;28;20034;-79
2022/04/15 01:56:46;;;;;;;0.22;0.22;;;;;;;23.10;18.14;101082.63;5035253;28;20079;-79
2022/04/15 01:59:12;;;;;;;0.20;0.20;;;;;;;23.12;18.01;101088.66;5034128;28;20022;-79
2022/04/15 02:01:37;;;;;;;0.35;0.35;;;;;;;23.11;18.08;101090.56;5035151;28;20075;-78
2022/04/15 02:04:03;;;;;;;0.20;0.20;;;;;;;23.11;17.87;101092.44;5035119;28;20025;-79
2022/04/15 02:06:28;;;;;;;0.32;0.32;;;;;;;23.10;17.86;101101.72;5033793;28;20430;-79
2022/04/15 02:08:53;;;;;;;0.30;0.30;;;;;;;23.10;17.88;101101.72;5034653;28;20032;-79
2022/04/15 02:11:19;;;;;;;0.28;0.20;;;;;;;23.09;17.85;101094.59;5034898;28;20074;-78
2022/04/15 02:13:44;;;;;;;0.20;0.20;;;;;;;23.11;17.87;101097.91;5034996;28;20026;-79
2022/04/15 02:16:10;;;;;;;0.30;0.30;;;;;;;23.10;17.70;101107.16;5034571;28;20487;-79
2022/04/15 02:18:36;;;;;;;0.20;0.20;;;;;;;23.09;17.67;101106.31;5034790;28;20056;-79
2022/04/15 02:21:01;;;;;;;0.20;0.20;;;;;;;23.09;17.46;101111.78;5033431;28;20559;-78
2022/04/15 02:23:27;;;;;;;0.30;0.30;;;;;;;23.08;17.39;101114.75;5034792;28;20029;-78
2022/04/15 02:25:52;;;;;;;0.20;0.20;;;;;;;23.09;17.55;101116.41;5035342;28;20026;-78
2022/04/15 02:28:18;;;;;;;0.20;0.20;;;;;;;23.08;17.58;101114.75;5035774;28;20433;-78
2022/04/15 02:30:47;;;;;;;0.20;0.20;;;;;;;23.08;17.41;101114.75;5034850;28;20026;-78
2022/04/15 02:33:13;;;;;;;0.20;0.20;;;;;;;23.06;17.48;101115.03;5035290;28;20052;-79
2022/04/15 02:35:38;;;;;;;0.22;0.22;;;;;;;23.08;17.42;101112.03;5050548;28;20402;-79
2022/04/15 02:38:04;;;;;;;0.20;0.20;;;;;;;23.06;17.40;101113.13;5021483;28;20022;-78
2022/04/15 02:40:29;;;;;;;0.17;0.17;;;;;;;23.07;17.24;101113.94;5014337;28;20057;-78
2022/04/15 02:42:54;;;;;;;0.20;0.20;;;;;;;23.04;17.33;101126.16;5014665;28;20033;-79
2022/04/15 02:45:21;;;;;;;0.30;0.30;;;;;;;23.08;17.18;101120.22;5014148;28;20480;-78
2022/04/15 02:47:47;;;;;;;0.20;0.20;;;;;;;23.03;17.14;101119.03;5014637;28;20109;-78
2022/04/15 02:50:13;;;;;;;0.20;0.20;;;;;;;23.05;17.18;101121.53;5014972;28;20104;-78
2022/04/15 02:52:38;;;;;;;0.20;0.20;;;;;;;23.04;17.28;101119.84;5014517;28;20488;-78
2022/04/15 02:55:04;;;;;;;0.22;0.20;;;;;;;23.04;17.29;101126.16;5015114;28;20368;-78
2022/04/15 02:57:30;;;;;;;0.20;0.20;;;;;;;23.04;17.25;101123.44;5012993;28;20561;-78
2022/04/15 02:59:55;;;;;;;0.20;0.20;;;;;;;23.03;17.01;101123.69;5015349;28;20041;-78
2022/04/15 03:02:20;;;;;;;0.20;0.20;;;;;;;23.05;17.08;101127.81;5015533;28;20460;-78
2022/04/15 03:04:46;;;;;;;0.13;0.13;;;;;;;23.04;17.04;101131.59;5015499;28;20115;-79
2022/04/15 03:07:11;;;;;;;0.20;0.20;;;;;;;23.05;17.11;101138.72;5016143;28;20026;-79
2022/04/15 03:09:37;;;;;;;0.20;0.20;;;;;;;23.05;17.17;101125.09;5016586;28;20030;-78
2022/04/15 03:12:03;;;;;;;0.15;0.15;;;;;;;23.02;17.22;101133.75;5016242;28;20432;-78
2022/04/15 03:14:28;;;;;;;0.20;0.20;;;;;;;23.03;17.11;101132.69;5016774;28;20464;-78
2022/04/15 03:16:53;;;;;;;0.20;0.20;;;;;;;23.03;17.13;101134.59;5016343;28;20464;-78
2022/04/15 03:19:19;;;;;;;0.20;0.20;;;;;;;23.02;17.18;101125.56;5015030;28;20037;-78
2022/04/15 03:21:44;;;;;;;0.20;0.20;;;;;;;23.04;17.01;101128.03;5014824;28;20030;-78
2022/04/15 03:24:10;;;;;;;0.20;0.20;;;;;;;23.03;17.05;101138.13;5016791;28;20432;-78
2022/04/15 03:26:35;;;;;;;0.20;0.20;;;;;;;23.04;17.09;101137.06;5016451;28;20045;-78
2022/04/15 03:29:01;;;;;;;0.22;0.22;;;;;;;23.03;17.11;101138.13;5016325;28;20022;-78
2022/04/15 03:31:26;;;;;;;0.20;0.20;;;;;;;23.04;17.05;101142.50;5016576;28;20022;-78
2022/04/15 03:33:52;;;;;;;0.20;0.20;;;;;;;23.03;16.93;101146.31;5016190;28;20475;-78
2022/04/15 03:36:18;;;;;;;0.20;0.20;;;;;;;23.03;17.04;101145.50;5017632;28;20022;-78
2022/04/15 03:38:44;;;;;;;0.20;0.20;;;;;;;23.03;16.87;101151.75;5034356;28;20033;-78
2022/04/15 03:41:09;;;;;;;0.20;0.20;;;;;;;23.03;16.94;101154.47;5035424;28;20061;-78
2022/04/15 03:43:35;;;;;;;0.22;0.22;;;;;;;23.02;16.88;101154.72;5038901;28;20526;-78
2022/04/15 03:46:00;;;;;;;0.20;0.20;;;;;;;23.03;16.92;101161.84;5036676;28;20028;-79
2022/04/15 03:48:26;;;;;;;0.20;0.20;;;;;;;23.03;16.79;101162.66;5036307;28;20021;-79
2022/04/15 03:50:53;;;;;;;0.45;0.20;;;;;;;23.02;16.91;101160.19;5036336;28;20025;-78
2022/04/15 03:53:19;;;;;;;0.20;0.20;;;;;;;23.01;16.74;101167.53;5051390;28;20018;-78
2022/04/15 03:55:44;;;;;;;0.20;0.20;;;;;;;23.04;16.94;101174.38;5035887;28;20030;-78
2022/04/15 03:58:13;;;;;;;0.22;0.22;;;;;;;23.04;16.66;101168.94;5037307;28;20029;-78
2022/04/15 04:00:38;;;;;;;0.40;0.40;;;;;;;23.01;16.73;101164.81;5036225;28;20049;-78
2022/04/15 04:03:04;;;;;;;0.30;0.30;;;;;;;23.02;16.75;101165.63;5050773;28;20018;-79
2022/04/15 04:05:30;;;;;;;0.20;0.20;;;;;;;23.01;16.73;101172.19;5035609;28;20040;-78
2022/04/15 04:07:55;;;;;;;0.20;0.20;;;;;;;23.00;16.80;101163.16;5035742;28;20033;-78
2022/04/15 04:10:20;;;;;;;0.30;0.20;;;;;;;22.98;16.96;101170.78;5035648;28;20029;-78
2022/04/15 04:12:48;;;;;;;0.20;0.20;;;;;;;23.00;16.74;101163.16;5035938;28;20021;-79
2022/04/15 04:15:13;;;;;;;0.20;0.20;;;;;;;22.97;16.76;101160.13;5035231;28;20105;-78
2022/04/15 04:17:39;;;;;;;0.30;0.30;;;;;;;22.99;16.73;101164.25;5035870;28;20029;-78
2022/04/15 04:20:05;;;;;;;0.20;0.20;;;;;;;22.96;16.91;101163.94;5036243;28;20026;-78
2022/04/15 04:22:32;;;;;;;0.38;0.28;;;;;;;22.96;16.93;101164.75;5038343;28;20026;-78
2022/04/15 04:24:57;;;;;;;0.20;0.20;;;;;;;22.96;16.74;101172.13;5039962;28;20113;-78
2022/04/15 04:27:23;;;;;;;0.20;0.20;;;;;;;22.98;16.75;101168.03;5040657;28;20025;-78
2022/04/15 04:29:49;;;;;;;0.20;0.20;;;;;;;22.98;16.90;101170.78;5040221;28;20034;-78
2022/04/15 04:32:15;;;;;;;0.10;0.10;;;;;;;22.96;16.80;101169.38;5040913;28;20083;-78
2022/04/15 04:34:40;;;;;;;0.20;0.20;;;;;;;22.97;16.92;101165.56;5040959;28;20030;-81
2022/04/15 04:37:06;;;;;;;0.20;0.20;;;;;;;22.98;16.83;101169.94;5037222;28;20486;-78
2022/04/15 04:39:31;;;;;;;0.20;0.20;;;;;;;22.99;16.73;101166.97;5018895;28;20049;-78
2022/04/15 04:41:57;;;;;;;0.20;0.20;;;;;;;22.98;16.89;101173.50;5017346;28;20033;-78
2022/04/15 04:44:23;;;;;;;0.25;0.25;;;;;;;22.96;16.73;101170.19;5002890;28;20105;-78
2022/04/15 04:46:48;;;;;;;0.20;0.20;;;;;;;22.98;16.87;101169.94;5016643;28;20031;-78
2022/04/15 04:49:14;;;;;;;0.20;0.20;;;;;;;22.98;16.97;101173.50;5016384;28;20049;-78
2022/04/15 04:51:39;;;;;;;0.30;0.30;;;;;;;22.96;16.81;101170.19;5015263;28;20064;-78
2022/04/15 04:54:04;;;;;;;0.20;0.20;;;;;;;22.96;16.79;101164.75;5015270;28;20037;-78
2022/04/15 04:56:30;;;;;;;0.20;0.20;;;;;;;22.96;16.88;101172.13;4998983;28;20376;-78
2022/04/15 04:58:55;;;;;;;0.30;0.30;;;;;;;22.99;16.84;101177.03;5016436;28;20291;-78
2022/04/15 05:01:21;;;;;;;0.30;0.30;;;;;;;22.96;16.88;101181.09;5016077;28;20033;-78
2022/04/15 05:03:46;;;;;;;0.30;0.30;;;;;;;22.95;16.81;101181.34;5017091;28;20022;-78
2022/04/15 05:06:11;;;;;;;0.20;0.20;;;;;;;22.95;16.80;101187.63;5015039;28;20464;-78
2022/04/15 05:08:37;;;;;;;0.30;0.30;;;;;;;22.96;16.71;101191.19;5016425;28;20493;-78
2022/04/15 05:11:02;;;;;;;0.30;0.30;;;;;;;22.99;17.01;101190.66;5015840;28;20022;-78
2022/04/15 05:13:28;;;;;;;0.40;0.40;;;;;;;22.97;16.83;101184.66;5016249;28;20037;-78
2022/04/15 05:15:53;;;;;;;0.20;0.20;;;;;;;22.96;16.89;101189.28;5015684;28;20045;-78
2022/04/15 05:18:19;;;;;;;0.30;0.30;;;;;;;22.94;16.85;101190.59;5014945;28;20083;-78
2022/04/15 05:20:45;;;;;;;0.22;0.22;;;;;;;22.94;16.78;101196.88;5016178;28;20030;-78
2022/04/15 05:23:12;;;;;;;0.30;0.30;;;;;;;22.94;16.93;101205.06;5016188;28;20030;-78
2022/04/15 05:25:37;;;;;;;0.20;0.20;;;;;;;22.94;16.93;101196.88;5014629;28;20388;-78
2022/04/15 05:28:03;;;;;;;0.28;0.28;;;;;;;22.96;16.95;101202.91;5014638;28;20034;-78
2022/04/15 05:30:28;;;;;;;0.30;0.30;;;;;;;22.92;16.97;101192.75;5015868;28;20132;-78
2022/04/15 05:32:54;;;;;;;0.20;0.20;;;;;;;22.95;17.05;101197.69;5015824;28;20381;-78
2022/04/15 05:35:19;;;;;;;0.30;0.30;;;;;;;22.92;17.08;101201.78;5015586;28;20435;-78
2022/04/15 05:37:45;;;;;;;0.30;0.30;;;;;;;22.94;17.13;101205.06;5019751;28;20029;-78
2022/04/15 05:40:10;;;;;;;0.20;0.20;;;;;;;22.94;17.08;101206.94;5035239;28;20061;-78
2022/04/15 05:42:36;;;;;;;0.20;0.20;;;;;;;22.93;17.17;101206.13;5035996;28;20053;-78
2022/04/15 05:45:01;;;;;;;0.20;0.20;;;;;;;22.94;17.23;101210.50;5050783;28;20486;-78
2022/04/15 05:47:27;;;;;;;0.30;0.30;;;;;;;22.95;17.09;101217.59;5034078;28;20030;-78
2022/04/15 05:49:52;;;;;;;0.20;0.20;;;;;;;22.94;17.05;101218.69;5035282;28;20379;-78
2022/04/15 05:52:17;;;;;;;0.20;0.20;;;;;;;22.96;17.13;101224.72;5035095;28;20463;-78
2022/04/15 05:54:43;;;;;;;0.30;0.30;;;;;;;22.95;17.28;101220.31;5035073;28;20483;-78
2022/04/15 05:57:08;;;;;;;0.13;0.13;;;;;;;22.94;17.49;101224.16;5035091;28;20017;-78
2022/04/15 05:59:34;;;;;;;0.30;0.30;;;;;;;22.94;17.28;101229.59;5035020;28;20419;-78
2022/04/15 06:01:59;;;;;;;0.13;0.13;;;;;;;22.95;17.28;101225.78;5034902;28;20460;-78
2022/04/15 06:04:25;;;;;;;0.20;0.20;;;;;;;22.96;17.43;101229.34;5034958;28;20418;-78
2022/04/15 06:06:50;;;;;;;0.20;0.20;;;;;;;22.92;17.31;101228.19;5034957;28;20026;-78
2022/04/15 06:09:15;;;;;;;0.20;0.20;;;;;;;22.95;17.25;101238.59;5034442;28;20025;-78
2022/04/15 06:11:41;;;;;;;0.15;0.15;;;;;;;22.94;17.29;101239.66;5034532;28;20021;-78
2022/04/15 06:14:07;;;;;;;0.20;0.20;;;;;;;22.95;17.10;101249.50;5034807;28;20368;-78
2022/04/15 06:16:37;;;;;;;0.20;0.20;;;;;;;22.92;17.27;101239.94;5034264;28;20056;-78
2022/04/15 06:19:02;;;;;;;0.20;0.20;;;;;;;22.95;17.28;101250.31;5049529;28;20033;-78
2022/04/15 06:21:27;;;;;;;0.20;0.20;;;;;;;22.94;17.25;101250.56;5034587;28;20025;-78
2022/04/15 06:23:54;;;;;;;0.25;0.25;;;;;;;22.95;17.23;101250.31;5049582;28;20026;-78
2022/04/15 06:26:20;;;;;;;0.13;0.13;;;;;;;22.94;17.47;101258.72;5034603;28;20030;-78
2022/04/15 06:28:45;;;;;;;0.22;0.22;;;;;;;22.94;17.43;101266.91;5034477;28;20025;-78
2022/04/15 06:31:10;;;;;;;0.20;0.20;;;;;;;22.96;17.41;101264.78;5033989;28;20025;-78
2022/04/15 06:33:37;;;;;;;0.30;0.30;;;;;;;22.96;17.46;101265.59;5034057;28;20029;-78
2022/04/15 06:36:03;;;;;;;0.20;0.20;;;;;;;22.95;17.42;101280.28;5034036;28;20032;-78
2022/04/15 06:38:29;;;;;;;0.20;0.20;;;;;;;22.95;17.51;101284.94;5024644;28;20028;-78
2022/04/15 06:40:54;;;;;;;0.13;0.13;;;;;;;22.95;17.38;101283.03;5013060;28;20424;-78
2022/04/15 06:43:20;;;;;;;0.30;0.30;;;;;;;22.94;17.41;101283.25;5014342;28;20386;-78
2022/04/15 06:45:45;;;;;;;0.20;0.20;;;;;;;22.93;17.41;101293.34;5014360;28;20026;-78
2022/04/15 06:48:10;;;;;;;0.20;0.20;;;;;;;22.95;17.28;101295.84;5014371;28;20088;-78
2022/04/15 06:50:36;;;;;;;0.20;0.20;;;;;;;22.94;17.54;101291.44;5014942;28;20025;-78
2022/04/15 06:53:01;;;;;;;0.20;0.20;;;;;;;22.95;17.37;101293.91;5014379;28;20104;-78
2022/04/15 06:55:27;;;;;;;0.28;0.20;;;;;;;22.94;17.41;101292.28;5013887;28;20430;-78
2022/04/15 06:57:52;;;;;;;0.20;0.20;;;;;;;22.95;17.44;101293.09;5013852;28;20022;-78
2022/04/15 07:00:18;;;;;;;0.20;0.20;;;;;;;22.94;17.47;101292.28;5014323;28;20026;-78
2022/04/15 07:02:44;;;;;;;0.10;0.10;;;;;;;22.94;17.38;101294.16;5014352;28;20500;-78
2022/04/15 07:05:09;;;;;;;0.20;0.20;;;;;;;22.95;17.34;101291.19;5013087;28;20060;-79
2022/04/15 07:07:36;;;;;;;0.20;0.20;;;;;;;22.92;17.39;101297.16;5013110;28;20383;-80
2022/04/15 07:10:02;;;;;;;0.20;0.20;;;;;;;22.94;17.48;101294.16;5013813;28;20026;-80
2022/04/15 07:12:28;;;;;;;0.30;0.30;;;;;;;22.91;17.45;101303.69;5013948;28;20494;-80
2022/04/15 07:14:53;;;;;;;0.25;0.22;;;;;;;22.91;17.25;101303.69;5013843;28;20041;-80
2022/04/15 07:17:19;;;;;;;0.20;0.20;;;;;;;22.93;17.24;101303.44;5014163;28;20034;-80
2022/04/15 07:19:44;;;;;;;0.20;0.20;;;;;;;22.94;17.41;101302.34;5014054;28;20026;-80
2022/04/15 07:22:09;;;;;;;0.30;0.30;;;;;;;22.95;17.41;101304.81;5014085;28;20026;-80
2022/04/15 07:24:35;;;;;;;0.20;0.20;;;;;;;22.94;17.35;101311.38;5013280;28;20045;-80
2022/04/15 07:27:00;;;;;;;0.20;0.20;;;;;;;22.93;17.29;101309.69;5013913;28;20076;-80
2022/04/15 07:29:26;;;;;;;0.20;0.20;;;;;;;22.93;17.28;101315.16;5013599;28;20469;-80
2022/04/15 07:31:52;;;;;;;0.20;0.20;;;;;;;22.92;17.30;101310.78;5013677;28;20026;-80
2022/04/15 07:34:18;;;;;;;0.20;0.20;;;;;;;22.92;17.39;101318.13;5012773;28;20080;-79
2022/04/15 07:36:45;;;;;;;0.10;0.10;;;;;;;22.93;17.57;101315.16;5012375;28;20030;-80
2022/04/15 07:39:11;;;;;;;0.20;0.20;;;;;;;22.93;17.47;101320.59;5026671;28;20041;-80
2022/04/15 07:41:37;;;;;;;0.17;0.17;;;;;;;22.92;17.30;101324.41;5033975;28;20117;-80
2022/04/15 07:44:07;;;;;;;0.20;0.20;;;;;;;22.91;17.26;101325.47;5033131;28;20052;-80
2022/04/15 07:46:32;;;;;;;0.10;0.10;;;;;;;22.93;17.15;101315.16;5033475;28;20375;-80
2022/04/15 07:48:58;;;;;;;0.10;0.10;;;;;;;22.95;17.03;101317.63;5033106;28;20017;-80
2022/04/15 07:51:24;;;;;;;0.20;0.20;;;;;;;22.93;17.21;101315.16;5033349;28;20032;-79
2022/04/15 07:53:49;;;;;;;0.20;0.20;;;;;;;22.93;17.01;101326.06;5033494;28;20025;-79
2022/04/15 07:56:14;;;;;;;0.17;0.17;;;;;;;22.94;17.18;101325.00;5032961;28;20092;-79
2022/04/15 07:58:40;;;;;;;0.20;0.20;;;;;;;22.93;17.11;101319.78;5035373;28;20133;-80
2022/04/15 08:01:06;;;;;;;0.10;0.10;;;;;;;22.94;17.08;101332.31;5036983;28;20087;-80
2022/04/15 08:03:32;;;;;;;0.20;0.20;;;;;;;22.94;17.16;101325.00;5037205;28;20026;-80
2022/04/15 08:05:57;;;;;;;0.20;0.20;;;;;;;22.93;17.04;101325.25;5037561;28;20080;-79
2022/04/15 08:08:23;;;;;;;0.20;0.20;;;;;;;22.94;17.15;101332.31;5037157;28;20037;-79
2022/04/15 08:10:50;;;;;;;0.15;0.15;;;;;;;22.94;17.04;101333.19;5036019;28;20056;-80
2022/04/15 08:13:16;;;;;;;0.10;0.10;;;;;;;22.93;17.10;101333.41;5037123;28;20052;-80
2022/04/15 08:15:41;;;;;;;0.10;0.10;;;;;;;22.94;17.10;101338.63;5036690;28;20032;-79
2022/04/15 08:18:06;;;;;;;0.10;0.10;;;;;;;22.94;16.87;101335.06;5036632;28;20025;-80
2022/04/15 08:20:32;;;;;;;0.20;0.20;;;;;;;22.93;17.08;101328.78;5036951;28;20029;-80
2022/04/15 08:22:57;;;;;;;0.10;0.10;;;;;;;22.94;16.76;101344.06;5036516;28;20037;-80
2022/04/15 08:25:23;;;;;;;0.20;0.20;;;;;;;22.94;16.87;101335.91;5036725;28;20025;-78
2022/04/15 08:27:48;;;;;;;0.10;0.10;;;;;;;22.93;17.07;101342.41;5037378;28;20022;-78
2022/04/15 08:30:14;;;;;;;0.10;0.10;;;;;;;22.93;16.96;101339.69;5036285;28;20033;-78
2022/04/15 08:32:39;;;;;;;0.20;0.20;;;;;;;22.94;16.76;101340.50;5036740;28;20083;-79
2022/04/15 08:35:07;;;;;;;0.10;0.10;;;;;;;22.93;16.85;101342.41;5035470;28;20034;-79
2022/04/15 08:37:36;;;;;;;0.20;0.20;;;;;;;22.93;16.81;101347.88;5037366;28;20084;-79
2022/04/15 08:40:01;;;;;;;0.20;0.20;;;;;;;22.92;16.89;101351.69;5016864;28;20129;-79
2022/04/15 08:42:27;;;;;;;0.20;0.20;;;;;;;22.93;16.76;101353.31;5016348;28;20522;-79
2022/04/15 08:44:53;;;;;;;0.10;0.10;;;;;;;22.92;16.84;101357.13;5016419;28;20034;-79
2022/04/15 08:47:18;;;;;;;0.20;0.20;;;;;;;22.92;16.82;101359.00;5016684;28;20022;-79
2022/04/15 08:49:44;;;;;;;0.22;0.22;;;;;;;22.93;16.71;101357.94;5015523;28;20076;-79
2022/04/15 08:52:11;;;;;;;0.20;0.20;;;;;;;22.93;16.67;101364.22;4998874;28;20473;-79
2022/04/15 08:54:37;;;;;;;0.20;0.20;;;;;;;22.92;16.84;101367.19;5016816;28;20058;-79
2022/04/15 08:57:03;;;;;;;0.10;0.10;;;;;;;22.93;16.77;101357.94;5014826;28;20077;-79
2022/04/15 08:59:28;;;;;;;0.20;0.20;;;;;;;22.93;16.85;101369.66;5016779;28;20026;-79
2022/04/15 09:01:54;;;;;;;0.10;0.10;;;;;;;22.92;16.80;101376.22;5016302;28;20055;-79
2022/04/15 09:04:19;;;;;;;0.20;0.20;;;;;;;22.92;16.60;101367.19;5016232;28;20439;-79
2022/04/15 09:06:44;;;;;;;0.10;0.10;;;;;;;22.91;16.77;101371.81;5015232;28;20045;-79
2022/04/15 09:09:14;;;;;;;0.20;0.20;;;;;;;22.90;16.63;101375.59;5015916;28;20056;-79
2022/04/15 09:11:42;;;;;;;0.15;0.15;;;;;;;22.92;16.75;101378.09;5014697;28;20054;-78
2022/04/15 09:14:10;;;;;;;0.20;0.20;;;;;;;22.91;16.56;101377.28;5016271;28;20083;-79
2022/04/15 09:16:45;;;;;;;0.20;0.20;;;;;;;22.94;16.48;101373.22;5016220;28;20060;-80
2022/04/15 09:19:11;;;;;;;0.13;0.13;;;;;;;22.93;16.53;101375.13;5014597;28;20026;-78
2022/04/15 09:21:37;;;;;;;0.10;0.10;;;;;;;22.92;16.63;101368.03;5015708;28;20037;-80
2022/04/15 09:24:03;;;;;;;0.10;0.10;;;;;;;22.93;16.57;101372.41;5015556;28;20057;-80
2022/04/15 09:26:28;;;;;;;0.20;0.20;;;;;;;22.93;16.55;101380.56;5015600;28;20026;-80
2022/04/15 09:28:54;;;;;;;0.17;0.17;;;;;;;22.93;16.57;101375.13;5015988;28;20033;-78
2022/04/15 09:31:21;;;;;;;0.20;0.20;;;;;;;22.92;16.47;101370.75;5015399;28;20176;-78
2022/04/15 09:33:54;;;;;;;0.20;0.20;;;;;;;22.93;16.35;101375.13;5015886;28;20026;-79
2022/04/15 09:36:26;;;;;;;0.13;0.13;;;;;;;22.95;16.51;101380.31;5015569;28;20040;-80
2022/04/15 09:39:01;;;;;;;0.15;0.15;;;;;;;22.94;16.53;101384.13;5022702;28;20059;-80
2022/04/15 09:41:27;;;;;;;0.10;0.10;;;;;;;22.94;16.55;101387.69;5035022;28;20488;-80
2022/04/15 09:43:53;;;;;;;0.10;0.10;;;;;;;22.94;16.30;101379.50;5035330;28;20026;-80
2022/04/15 09:46:19;;;;;;;0.20;0.20;;;;;;;22.94;16.26;101395.03;5050523;28;20028;-80
2022/04/15 09:49:07;;;;;;;0.20;0.20;;;;;;;23.01;16.33;101388.34;5035096;28;20471;-80
2022/04/15 09:51:46;;;;;;;0.20;0.20;;;;;;;23.02;16.24;101389.16;5034951;28;20021;-80
2022/04/15 09:54:27;;;;;;;0.10;0.10;;;;;;;23.02;16.29;101389.97;5035344;28;20034;-80
2022/04/15 09:56:59;;;;;;;0.20;0.20;;;;;;;22.96;16.21;101382.00;5050031;28;20048;-80
2022/04/15 09:59:26;;;;;;;0.20;0.20;;;;;;;22.95;16.15;101389.31;5049559;28;20400;-80
2022/04/15 10:01:55;;;;;;;0.10;0.10;;;;;;;22.97;16.15;101387.16;5035078;28;20029;-80
2022/04/15 10:04:23;;;;;;;0.10;0.10;;;;;;;22.92;16.11;101378.94;5034978;28;20025;-80
2022/04/15 10:06:48;;;;;;;0.20;0.20;;;;;;;22.96;16.17;101396.44;5033325;28;20021;-80
2022/04/15 10:09:14;;;;;;;0.20;0.20;;;;;;;22.95;16.16;101389.31;5033406;28;20032;-79
2022/04/15 10:11:43;;;;;;;0.20;0.20;;;;;;;22.96;16.15;101391.00;5033239;28;20040;-79
2022/04/15 10:14:13;;;;;;;0.10;0.10;;;;;;;22.94;16.04;101387.69;5036244;28;20052;-80
2022/04/15 10:16:39;;;;;;;0.20;0.20;;;;;;;22.98;16.00;101388.03;5033466;28;20036;-80
2022/04/15 10:19:04;;;;;;;0.20;0.20;;;;;;;22.98;15.83;101394.28;5034726;28;20029;-79
2022/04/15 10:21:37;;;;;;;0.20;0.20;;;;;;;23.05;15.91;101392.25;5033516;28;20460;-79
2022/04/15 10:24:03;;;;;;;0.20;0.20;;;;;;;23.04;15.81;101393.31;5034641;28;20128;-79
2022/04/15 10:26:38;;;;;;;0.20;0.20;;;;;;;23.06;15.81;101395.84;5033637;28;20116;-80
2022/04/15 10:29:04;;;;;;;0.20;0.20;;;;;;;23.09;15.71;101399.94;5034209;28;20457;-79
2022/04/15 10:31:44;;;;;;;0.15;0.15;;;;;;;23.12;15.79;101404.91;5049694;28;20021;-80
2022/04/15 10:34:14;;;;;;;0.20;0.20;;;;;;;23.09;15.83;101405.41;5034491;28;20368;-80
2022/04/15 10:36:47;;;;;;;0.20;0.20;;;;;;;23.12;15.66;101405.72;5034016;28;20022;-80
2022/04/15 10:39:14;;;;;;;0.17;0.17;;;;;;;23.12;15.65;101413.91;5026571;28;20457;-80
2022/04/15 10:41:43;;;;;;;0.20;0.20;;;;;;;23.14;15.86;101408.22;5014249;28;20030;-79
2022/04/15 10:44:35;;;;;;;0.20;0.20;;;;;;;23.19;15.90;101409.13;5014219;28;20088;-80
2022/04/15 10:47:05;;;;;;;0.10;0.10;;;;;;;23.15;15.68;101405.25;5014438;28;20036;-80
2022/04/15 10:49:30;;;;;;;0.20;0.20;;;;;;;23.16;15.63;101409.63;5013045;28;20041;-79
2022/04/15 10:52:16;;;;;;;0.20;0.20;;;;;;;23.24;15.75;101405.66;5013963;28;20030;-79
2022/04/15 10:54:42;;;;;;;0.15;0.15;;;;;;;23.17;15.52;101414.00;5014132;28;20113;-80
2022/04/15 10:57:21;;;;;;;0.20;0.20;;;;;;;23.17;15.79;101410.44;5012764;28;20380;-80
2022/04/15 11:02:40;;;;;;;0.20;0.20;;;;;;;23.19;15.63;101421.94;5014113;28;20121;-80
2022/04/15 11:05:11;;;;;;;0.20;0.20;;;;;;;23.19;15.44;101420.03;5014036;28;20032;-80
2022/04/15 11:08:04;;;;;;;0.10;0.10;;;;;;;23.25;15.74;101412.78;5013916;28;20076;-79
2022/04/15 11:10:49;;;;;;;0.10;0.10;;;;;;;23.27;15.50;101417.97;5013198;28;20041;-79
2022/04/15 11:13:29;;;;;;;0.20;0.20;;;;;;;23.27;15.57;101420.69;5014183;28;20457;-79
2022/04/15 11:16:04;;;;;;;0.20;0.20;;;;;;;23.23;15.41;101415.75;5014860;28;20060;-79
2022/04/15 11:18:51;;;;;;;0.13;0.13;;;;;;;23.27;15.67;101415.22;5013761;28;20052;-79
2022/04/15 11:21:17;;;;;;;0.10;0.10;;;;;;;23.22;15.41;101422.25;5012492;28;20099;-79
2022/04/15 11:24:05;;;;;;;0.20;0.20;;;;;;;23.26;15.60;101414.41;5013970;28;20025;-80
2022/04/15 11:26:32;;;;;;;0.15;0.15;;;;;;;23.23;15.35;101423.09;5013842;28;20112;-80